sensor_id;sensor_type;location;lat;lon;timestamp;temperature;humidity
66582;SHT31;53438;48.898;2.308;2024-01-27T00:01:51;8.10;69.04
66582;SHT31;53438;48.898;2.308;2024-01-27T00:04:16;8.01;69.22
66582;SHT31;53438;48.898;2.308;2024-01-27T00:06:41;8.01;69.53
66582;SHT31;53438;48.898;2.308;2024-01-27T00:09:07;7.99;69.10
66582;SHT31;53438;48.898;2.308;2024-01-27T00:11:32;7.71;69.70
66582;SHT31;53438;48.898;2.308;2024-01-27T00:13:57;7.92;69.65
66582;SHT31;53438;48.898;2.308;2024-01-27T00:16:24;8.01;69.27
66582;SHT31;53438;48.898;2.308;2024-01-27T00:18:50;7.91;69.62
66582;SHT31;53438;48.898;2.308;2024-01-27T00:21:15;7.98;69.62
66582;SHT31;53438;48.898;2.308;2024-01-27T00:23:40;7.99;69.49
66582;SHT31;53438;48.898;2.308;2024-01-27T00:26:06;7.67;69.84
66582;SHT31;53438;48.898;2.308;2024-01-27T00:28:31;7.82;69.90
66582;SHT31;53438;48.898;2.308;2024-01-27T00:30:57;7.85;69.91
66582;SHT31;53438;48.898;2.308;2024-01-27T00:33:22;7.87;69.67
66582;SHT31;53438;48.898;2.308;2024-01-27T00:35:47;7.73;70.22
66582;SHT31;53438;48.898;2.308;2024-01-27T00:38:13;7.79;70.07
66582;SHT31;53438;48.898;2.308;2024-01-27T00:40:38;7.78;70.33
66582;SHT31;53438;48.898;2.308;2024-01-27T00:43:03;7.81;70.30
66582;SHT31;53438;48.898;2.308;2024-01-27T00:45:29;7.85;70.05
66582;SHT31;53438;48.898;2.308;2024-01-27T00:47:58;7.96;69.76
66582;SHT31;53438;48.898;2.308;2024-01-27T00:50:23;7.95;69.60
66582;SHT31;53438;48.898;2.308;2024-01-27T00:52:49;7.77;70.17
66582;SHT31;53438;48.898;2.308;2024-01-27T00:55:14;7.73;70.50
66582;SHT31;53438;48.898;2.308;2024-01-27T00:57:39;7.70;69.93
66582;SHT31;53438;48.898;2.308;2024-01-27T04:01:36;6.28;75.15
66582;SHT31;53438;48.898;2.308;2024-01-27T04:04:02;6.28;74.89
66582;SHT31;53438;48.898;2.308;2024-01-27T04:06:27;6.24;75.41
66582;SHT31;53438;48.898;2.308;2024-01-27T04:08:52;6.31;75.13
66582;SHT31;53438;48.898;2.308;2024-01-27T04:11:21;6.16;75.19
66582;SHT31;53438;48.898;2.308;2024-01-27T04:13:49;6.28;75.24
66582;SHT31;53438;48.898;2.308;2024-01-27T04:16:15;6.34;75.21
66582;SHT31;53438;48.898;2.308;2024-01-27T04:18:41;6.52;74.70
66582;SHT31;53438;48.898;2.308;2024-01-27T04:21:07;6.20;75.94
66582;SHT31;53438;48.898;2.308;2024-01-27T04:23:32;6.30;75.47
66582;SHT31;53438;48.898;2.308;2024-01-27T04:25:58;6.20;76.02
66582;SHT31;53438;48.898;2.308;2024-01-27T04:28:24;6.47;74.76
66582;SHT31;53438;48.898;2.308;2024-01-27T04:30:49;6.44;74.60
66582;SHT31;53438;48.898;2.308;2024-01-27T04:33:14;6.36;74.75
66582;SHT31;53438;48.898;2.308;2024-01-27T04:35:40;6.38;74.65
66582;SHT31;53438;48.898;2.308;2024-01-27T04:38:08;6.36;74.54
66582;SHT31;53438;48.898;2.308;2024-01-27T04:40:33;6.36;74.70
66582;SHT31;53438;48.898;2.308;2024-01-27T04:43:00;6.24;74.91
66582;SHT31;53438;48.898;2.308;2024-01-27T04:45:26;6.23;74.60
66582;SHT31;53438;48.898;2.308;2024-01-27T04:47:52;6.37;74.50
66582;SHT31;53438;48.898;2.308;2024-01-27T04:50:18;6.28;74.38
66582;SHT31;53438;48.898;2.308;2024-01-27T04:52:44;6.18;74.60
66582;SHT31;53438;48.898;2.308;2024-01-27T04:55:09;6.16;74.70
66582;SHT31;53438;48.898;2.308;2024-01-27T04:57:34;5.95;75.45
66582;SHT31;53438;48.898;2.308;2024-01-27T05:00:00;6.06;75.22
66582;SHT31;53438;48.898;2.308;2024-01-27T05:02:25;6.07;75.09
66582;SHT31;53438;48.898;2.308;2024-01-27T05:04:51;6.11;74.86
66582;SHT31;53438;48.898;2.308;2024-01-27T05:07:17;6.14;74.52
66582;SHT31;53438;48.898;2.308;2024-01-27T05:09:42;6.14;74.76
66582;SHT31;53438;48.898;2.308;2024-01-27T05:12:08;6.18;74.67
66582;SHT31;53438;48.898;2.308;2024-01-27T05:14:34;6.16;74.52
66582;SHT31;53438;48.898;2.308;2024-01-27T05:16:59;6.16;74.28
66582;SHT31;53438;48.898;2.308;2024-01-27T05:19:25;5.80;75.33
66582;SHT31;53438;48.898;2.308;2024-01-27T05:21:50;5.82;75.67
66582;SHT31;53438;48.898;2.308;2024-01-27T05:24:15;5.60;76.06
66582;SHT31;53438;48.898;2.308;2024-01-27T05:26:41;5.73;75.96
66582;SHT31;53438;48.898;2.308;2024-01-27T05:29:06;5.73;75.74
66582;SHT31;53438;48.898;2.308;2024-01-27T05:31:31;5.82;75.56
66582;SHT31;53438;48.898;2.308;2024-01-27T05:33:57;5.62;76.41
66582;SHT31;53438;48.898;2.308;2024-01-27T05:36:22;5.63;76.56
66582;SHT31;53438;48.898;2.308;2024-01-27T05:38:48;5.69;76.29
66582;SHT31;53438;48.898;2.308;2024-01-27T05:41:13;5.68;75.99
66582;SHT31;53438;48.898;2.308;2024-01-27T05:43:39;5.44;76.91
66582;SHT31;53438;48.898;2.308;2024-01-27T05:46:04;5.39;76.89
66582;SHT31;53438;48.898;2.308;2024-01-27T05:48:30;5.51;76.51
66582;SHT31;53438;48.898;2.308;2024-01-27T05:50:56;5.54;76.78
66582;SHT31;53438;48.898;2.308;2024-01-27T05:53:22;5.69;76.33
66582;SHT31;53438;48.898;2.308;2024-01-27T05:55:48;5.76;75.64
66582;SHT31;53438;48.898;2.308;2024-01-27T05:58:13;5.63;76.30
66582;SHT31;53438;48.898;2.308;2024-01-27T06:00:39;5.56;76.36
66582;SHT31;53438;48.898;2.308;2024-01-27T06:03:04;5.60;76.19
66582;SHT31;53438;48.898;2.308;2024-01-27T06:05:30;5.63;76.12
66582;SHT31;53438;48.898;2.308;2024-01-27T06:07:55;5.69;75.94
66582;SHT31;53438;48.898;2.308;2024-01-27T06:10:20;5.51;76.63
66582;SHT31;53438;48.898;2.308;2024-01-27T06:12:46;5.55;76.71
66582;SHT31;53438;48.898;2.308;2024-01-27T06:15:12;5.66;76.33
66582;SHT31;53438;48.898;2.308;2024-01-27T06:17:37;5.62;76.60
66582;SHT31;53438;48.898;2.308;2024-01-27T06:20:03;5.77;75.55
66582;SHT31;53438;48.898;2.308;2024-01-27T06:22:29;5.45;76.74
66582;SHT31;53438;48.898;2.308;2024-01-27T06:24:56;5.60;76.27
66582;SHT31;53438;48.898;2.308;2024-01-27T06:27:21;5.52;76.11
66582;SHT31;53438;48.898;2.308;2024-01-27T06:29:47;5.52;76.55
66582;SHT31;53438;48.898;2.308;2024-01-27T06:32:12;5.52;76.42
66582;SHT31;53438;48.898;2.308;2024-01-27T06:34:38;5.44;76.22
66582;SHT31;53438;48.898;2.308;2024-01-27T06:37:03;5.28;76.71
66582;SHT31;53438;48.898;2.308;2024-01-27T06:39:30;5.34;77.15
66582;SHT31;53438;48.898;2.308;2024-01-27T06:41:55;5.27;76.72
66582;SHT31;53438;48.898;2.308;2024-01-27T06:44:20;5.38;76.51
66582;SHT31;53438;48.898;2.308;2024-01-27T06:46:46;5.39;76.44
66582;SHT31;53438;48.898;2.308;2024-01-27T06:49:18;5.30;76.69
66582;SHT31;53438;48.898;2.308;2024-01-27T06:51:43;5.00;77.68
66582;SHT31;53438;48.898;2.308;2024-01-27T06:54:09;5.13;77.46
66582;SHT31;53438;48.898;2.308;2024-01-27T06:56:34;5.24;76.97
66582;SHT31;53438;48.898;2.308;2024-01-27T06:58:59;5.27;76.92
66582;SHT31;53438;48.898;2.308;2024-01-27T07:01:24;5.24;76.84
66582;SHT31;53438;48.898;2.308;2024-01-27T07:03:50;5.48;76.08
66582;SHT31;53438;48.898;2.308;2024-01-27T07:06:15;5.55;75.41
66582;SHT31;53438;48.898;2.308;2024-01-27T07:08:41;5.30;76.23
66582;SHT31;53438;48.898;2.308;2024-01-27T07:11:06;5.20;76.63
66582;SHT31;53438;48.898;2.308;2024-01-27T07:13:32;5.13;77.05
66582;SHT31;53438;48.898;2.308;2024-01-27T07:15:57;5.24;76.70
66582;SHT31;53438;48.898;2.308;2024-01-27T07:18:24;5.35;76.28
66582;SHT31;53438;48.898;2.308;2024-01-27T07:20:49;5.44;75.75
66582;SHT31;53438;48.898;2.308;2024-01-27T07:23:14;5.42;75.76
66582;SHT31;53438;48.898;2.308;2024-01-27T07:25:40;5.31;76.24
66582;SHT31;53438;48.898;2.308;2024-01-27T07:28:05;5.30;76.15
66582;SHT31;53438;48.898;2.308;2024-01-27T07:30:31;5.25;76.50
66582;SHT31;53438;48.898;2.308;2024-01-27T07:32:56;5.34;76.24
66582;SHT31;53438;48.898;2.308;2024-01-27T07:35:22;5.30;76.14
66582;SHT31;53438;48.898;2.308;2024-01-27T07:37:47;5.31;76.18
66582;SHT31;53438;48.898;2.308;2024-01-27T07:40:12;5.24;76.72
66582;SHT31;53438;48.898;2.308;2024-01-27T07:42:37;5.42;75.98
66582;SHT31;53438;48.898;2.308;2024-01-27T07:45:03;5.10;76.71
66582;SHT31;53438;48.898;2.308;2024-01-27T07:47:29;5.24;76.79
66582;SHT31;53438;48.898;2.308;2024-01-27T07:49:54;5.20;76.37
66582;SHT31;53438;48.898;2.308;2024-01-27T07:52:19;5.34;76.05
66582;SHT31;53438;48.898;2.308;2024-01-27T07:54:45;5.25;76.26
66582;SHT31;53438;48.898;2.308;2024-01-27T07:57:10;5.30;75.70
66582;SHT31;53438;48.898;2.308;2024-01-27T07:59:37;5.28;75.80
66582;SHT31;53438;48.898;2.308;2024-01-27T08:02:02;5.16;75.95
66582;SHT31;53438;48.898;2.308;2024-01-27T08:04:28;5.18;76.19
66582;SHT31;53438;48.898;2.308;2024-01-27T08:06:53;5.28;76.01
66582;SHT31;53438;48.898;2.308;2024-01-27T08:09:19;5.27;76.32
66582;SHT31;53438;48.898;2.308;2024-01-27T08:11:45;5.38;76.01
66582;SHT31;53438;48.898;2.308;2024-01-27T08:14:10;5.27;76.33
66582;SHT31;53438;48.898;2.308;2024-01-27T08:16:36;5.37;76.04
66582;SHT31;53438;48.898;2.308;2024-01-27T08:19:01;5.48;75.64
66582;SHT31;53438;48.898;2.308;2024-01-27T08:21:27;5.51;75.64
66582;SHT31;53438;48.898;2.308;2024-01-27T08:23:53;5.59;75.30
66582;SHT31;53438;48.898;2.308;2024-01-27T08:26:18;5.65;74.97
66582;SHT31;53438;48.898;2.308;2024-01-27T08:28:46;5.56;75.20
66582;SHT31;53438;48.898;2.308;2024-01-27T08:31:11;5.54;75.51
66582;SHT31;53438;48.898;2.308;2024-01-27T08:33:37;5.65;75.27
66582;SHT31;53438;48.898;2.308;2024-01-27T08:36:02;5.65;74.94
66582;SHT31;53438;48.898;2.308;2024-01-27T08:38:28;5.66;75.22
66582;SHT31;53438;48.898;2.308;2024-01-27T08:40:53;5.80;74.81
66582;SHT31;53438;48.898;2.308;2024-01-27T08:43:19;5.83;74.80
66582;SHT31;53438;48.898;2.308;2024-01-27T08:46:08;5.89;74.80
66582;SHT31;53438;48.898;2.308;2024-01-27T08:48:50;6.02;74.63
66582;SHT31;53438;48.898;2.308;2024-01-27T08:51:16;6.07;74.32
66582;SHT31;53438;48.898;2.308;2024-01-27T08:53:42;6.27;73.76
66582;SHT31;53438;48.898;2.308;2024-01-27T08:56:13;6.37;72.97
66582;SHT31;53438;48.898;2.308;2024-01-27T08:58:42;6.47;72.62
66582;SHT31;53438;48.898;2.308;2024-01-27T09:01:09;6.58;72.28
66582;SHT31;53438;48.898;2.308;2024-01-27T09:03:35;6.71;71.72
66582;SHT31;53438;48.898;2.308;2024-01-27T09:06:01;6.86;71.17
66582;SHT31;53438;48.898;2.308;2024-01-27T09:08:26;7.03;70.52
66582;SHT31;53438;48.898;2.308;2024-01-27T09:10:51;7.12;70.05
66582;SHT31;53438;48.898;2.308;2024-01-27T09:13:16;7.17;69.44
66582;SHT31;53438;48.898;2.308;2024-01-27T09:15:42;7.16;69.58
66582;SHT31;53438;48.898;2.308;2024-01-27T09:18:07;7.28;69.61
66582;SHT31;53438;48.898;2.308;2024-01-27T09:20:33;7.36;69.34
66582;SHT31;53438;48.898;2.308;2024-01-27T09:22:58;7.42;69.17
66582;SHT31;53438;48.898;2.308;2024-01-27T09:25:23;7.54;68.52
66582;SHT31;53438;48.898;2.308;2024-01-27T09:27:52;7.56;68.53
66582;SHT31;53438;48.898;2.308;2024-01-27T09:30:17;7.42;68.27
66582;SHT31;53438;48.898;2.308;2024-01-27T09:32:43;7.47;68.21
66582;SHT31;53438;48.898;2.308;2024-01-27T09:35:08;7.48;68.00
66582;SHT31;53438;48.898;2.308;2024-01-27T09:37:34;7.43;67.98
66582;SHT31;53438;48.898;2.308;2024-01-27T09:39:59;7.51;67.41
66582;SHT31;53438;48.898;2.308;2024-01-27T09:42:26;7.54;66.90
66582;SHT31;53438;48.898;2.308;2024-01-27T09:44:53;7.66;66.35
66582;SHT31;53438;48.898;2.308;2024-01-27T09:47:22;7.67;65.85
66582;SHT31;53438;48.898;2.308;2024-01-27T09:49:47;7.70;65.75
66582;SHT31;53438;48.898;2.308;2024-01-27T09:52:14;7.79;66.08
66582;SHT31;53438;48.898;2.308;2024-01-27T09:54:40;7.88;65.80
66582;SHT31;53438;48.898;2.308;2024-01-27T09:57:05;7.92;65.49
66582;SHT31;53438;48.898;2.308;2024-01-27T09:59:33;7.98;65.01
66582;SHT31;53438;48.898;2.308;2024-01-27T10:01:59;7.98;64.56
66582;SHT31;53438;48.898;2.308;2024-01-27T10:04:26;8.03;64.19
66582;SHT31;53438;48.898;2.308;2024-01-27T10:06:52;8.01;63.65
66582;SHT31;53438;48.898;2.308;2024-01-27T10:09:18;8.03;63.73
66582;SHT31;53438;48.898;2.308;2024-01-27T10:11:46;8.09;63.61
66582;SHT31;53438;48.898;2.308;2024-01-27T10:14:13;8.16;63.54
66582;SHT31;53438;48.898;2.308;2024-01-27T10:16:45;8.12;63.20
66582;SHT31;53438;48.898;2.308;2024-01-27T10:19:15;8.19;62.95
66582;SHT31;53438;48.898;2.308;2024-01-27T10:21:42;8.16;62.59
66582;SHT31;53438;48.898;2.308;2024-01-27T10:24:08;8.12;62.81
66582;SHT31;53438;48.898;2.308;2024-01-27T10:26:33;8.13;62.36
66582;SHT31;53438;48.898;2.308;2024-01-27T10:29:00;8.22;62.27
66582;SHT31;53438;48.898;2.308;2024-01-27T10:31:34;8.22;61.80
66582;SHT31;53438;48.898;2.308;2024-01-27T10:33:59;8.24;61.54
66582;SHT31;53438;48.898;2.308;2024-01-27T10:36:27;8.29;61.51
66582;SHT31;53438;48.898;2.308;2024-01-27T10:39:02;8.32;60.86
66582;SHT31;53438;48.898;2.308;2024-01-27T10:41:28;8.36;60.77
66582;SHT31;53438;48.898;2.308;2024-01-27T10:43:56;8.33;60.25
66582;SHT31;53438;48.898;2.308;2024-01-27T10:46:25;8.29;60.33
66582;SHT31;53438;48.898;2.308;2024-01-27T10:48:52;8.35;60.44
66582;SHT31;53438;48.898;2.308;2024-01-27T10:51:31;8.33;60.15
66582;SHT31;53438;48.898;2.308;2024-01-27T10:54:02;8.42;60.42
66582;SHT31;53438;48.898;2.308;2024-01-27T10:56:29;8.47;60.34
66582;SHT31;53438;48.898;2.308;2024-01-27T10:58:57;8.54;60.19
66582;SHT31;53438;48.898;2.308;2024-01-27T11:01:24;8.50;59.41
66582;SHT31;53438;48.898;2.308;2024-01-27T11:03:51;8.50;58.79
66582;SHT31;53438;48.898;2.308;2024-01-27T11:06:18;8.49;58.78
66582;SHT31;53438;48.898;2.308;2024-01-27T11:08:45;8.50;58.31
66582;SHT31;53438;48.898;2.308;2024-01-27T11:11:11;8.47;57.96
66582;SHT31;53438;48.898;2.308;2024-01-27T11:13:37;8.47;58.39
66582;SHT31;53438;48.898;2.308;2024-01-27T11:16:03;8.52;57.97
66582;SHT31;53438;48.898;2.308;2024-01-27T11:18:29;8.53;57.28
66582;SHT31;53438;48.898;2.308;2024-01-27T11:20:55;8.50;57.44
66582;SHT31;53438;48.898;2.308;2024-01-27T11:23:31;8.46;57.45
66582;SHT31;53438;48.898;2.308;2024-01-27T11:26:04;8.56;57.43
66582;SHT31;53438;48.898;2.308;2024-01-27T11:28:30;8.61;57.89
66582;SHT31;53438;48.898;2.308;2024-01-27T11:30:55;8.63;57.69
66582;SHT31;53438;48.898;2.308;2024-01-27T11:33:24;8.73;57.34
66582;SHT31;53438;48.898;2.308;2024-01-27T11:36:00;8.74;57.32
66582;SHT31;53438;48.898;2.308;2024-01-27T11:38:27;8.78;57.35
66582;SHT31;53438;48.898;2.308;2024-01-27T11:40:52;8.78;57.01
66582;SHT31;53438;48.898;2.308;2024-01-27T11:43:18;8.81;57.18
66582;SHT31;53438;48.898;2.308;2024-01-27T11:45:58;8.81;57.06
66582;SHT31;53438;48.898;2.308;2024-01-27T11:48:23;8.78;56.87
66582;SHT31;53438;48.898;2.308;2024-01-27T11:50:49;8.77;56.83
66582;SHT31;53438;48.898;2.308;2024-01-27T11:53:25;8.87;57.60
66582;SHT31;53438;48.898;2.308;2024-01-27T11:55:57;8.89;56.81
66582;SHT31;53438;48.898;2.308;2024-01-27T11:58:25;8.94;57.15
66582;SHT31;53438;48.898;2.308;2024-01-27T12:00:51;8.98;56.97
66582;SHT31;53438;48.898;2.308;2024-01-27T12:03:17;9.04;56.44
66582;SHT31;53438;48.898;2.308;2024-01-27T12:05:43;8.98;56.05
66582;SHT31;53438;48.898;2.308;2024-01-27T12:08:08;8.97;56.32
66582;SHT31;53438;48.898;2.308;2024-01-27T12:10:34;9.00;56.24
66582;SHT31;53438;48.898;2.308;2024-01-27T12:13:00;9.04;56.45
66582;SHT31;53438;48.898;2.308;2024-01-27T12:15:26;9.03;56.39
66582;SHT31;53438;48.898;2.308;2024-01-27T12:17:52;9.08;55.95
66582;SHT31;53438;48.898;2.308;2024-01-27T12:20:17;9.11;56.00
66582;SHT31;53438;48.898;2.308;2024-01-27T12:22:43;9.10;55.69
66582;SHT31;53438;48.898;2.308;2024-01-27T12:25:10;9.10;56.10
66582;SHT31;53438;48.898;2.308;2024-01-27T12:27:36;9.21;56.32
66582;SHT31;53438;48.898;2.308;2024-01-27T12:30:02;9.22;55.96
66582;SHT31;53438;48.898;2.308;2024-01-27T12:32:27;9.17;56.15
66582;SHT31;53438;48.898;2.308;2024-01-27T12:34:53;9.15;56.40
66582;SHT31;53438;48.898;2.308;2024-01-27T12:37:21;9.15;56.53
66582;SHT31;53438;48.898;2.308;2024-01-27T12:39:46;9.19;56.57
66582;SHT31;53438;48.898;2.308;2024-01-27T12:42:12;9.17;56.61
66582;SHT31;53438;48.898;2.308;2024-01-27T12:44:38;9.19;56.94
66582;SHT31;53438;48.898;2.308;2024-01-27T12:47:04;9.21;57.05
66582;SHT31;53438;48.898;2.308;2024-01-27T12:49:30;9.19;57.37
66582;SHT31;53438;48.898;2.308;2024-01-27T12:51:55;9.21;57.08
66582;SHT31;53438;48.898;2.308;2024-01-27T12:54:21;9.18;57.15
66582;SHT31;53438;48.898;2.308;2024-01-27T12:56:46;9.18;56.99
66582;SHT31;53438;48.898;2.308;2024-01-27T12:59:11;9.18;57.16
66582;SHT31;53438;48.898;2.308;2024-01-27T13:01:38;9.19;57.16
66582;SHT31;53438;48.898;2.308;2024-01-27T13:04:03;9.17;57.28
66582;SHT31;53438;48.898;2.308;2024-01-27T13:06:30;9.17;57.53
66582;SHT31;53438;48.898;2.308;2024-01-27T13:08:57;9.21;57.17
66582;SHT31;53438;48.898;2.308;2024-01-27T13:11:22;9.31;55.94
66582;SHT31;53438;48.898;2.308;2024-01-27T13:13:49;9.35;55.71
66582;SHT31;53438;48.898;2.308;2024-01-27T13:16:14;9.38;55.78
66582;SHT31;53438;48.898;2.308;2024-01-27T13:18:40;9.47;54.73
66582;SHT31;53438;48.898;2.308;2024-01-27T13:21:05;9.49;54.19
66582;SHT31;53438;48.898;2.308;2024-01-27T13:23:32;9.36;54.27
66582;SHT31;53438;48.898;2.308;2024-01-27T13:25:57;9.32;53.98
66582;SHT31;53438;48.898;2.308;2024-01-27T13:28:23;9.38;53.95
66582;SHT31;53438;48.898;2.308;2024-01-27T13:30:51;9.40;53.95
66582;SHT31;53438;48.898;2.308;2024-01-27T13:33:16;9.42;53.73
66582;SHT31;53438;48.898;2.308;2024-01-27T13:35:42;9.47;53.95
66582;SHT31;53438;48.898;2.308;2024-01-27T13:38:12;9.52;54.17
66582;SHT31;53438;48.898;2.308;2024-01-27T13:40:38;9.50;54.67
66582;SHT31;53438;48.898;2.308;2024-01-27T13:43:03;9.53;54.22
66582;SHT31;53438;48.898;2.308;2024-01-27T13:45:29;9.50;54.22
66582;SHT31;53438;48.898;2.308;2024-01-27T13:47:55;9.43;54.33
66582;SHT31;53438;48.898;2.308;2024-01-27T13:50:20;9.43;53.34
66582;SHT31;53438;48.898;2.308;2024-01-27T13:52:46;9.47;53.91
66582;SHT31;53438;48.898;2.308;2024-01-27T13:55:12;9.50;54.01
66582;SHT31;53438;48.898;2.308;2024-01-27T13:57:38;9.55;53.65
66582;SHT31;53438;48.898;2.308;2024-01-27T14:00:05;9.52;53.06
66582;SHT31;53438;48.898;2.308;2024-01-27T14:02:31;9.56;52.67
66582;SHT31;53438;48.898;2.308;2024-01-27T14:04:56;9.59;52.54
66582;SHT31;53438;48.898;2.308;2024-01-27T14:07:22;9.53;52.60
66582;SHT31;53438;48.898;2.308;2024-01-27T14:09:48;9.50;52.71
66582;SHT31;53438;48.898;2.308;2024-01-27T14:12:14;9.55;53.19
66582;SHT31;53438;48.898;2.308;2024-01-27T14:14:40;9.52;53.66
66582;SHT31;53438;48.898;2.308;2024-01-27T14:17:07;9.56;53.47
66582;SHT31;53438;48.898;2.308;2024-01-27T14:19:32;9.67;53.30
66582;SHT31;53438;48.898;2.308;2024-01-27T14:21:58;9.66;53.47
66582;SHT31;53438;48.898;2.308;2024-01-27T14:24:23;9.66;53.49
66582;SHT31;53438;48.898;2.308;2024-01-27T14:26:49;9.69;53.59
66582;SHT31;53438;48.898;2.308;2024-01-27T14:29:14;9.75;53.51
66582;SHT31;53438;48.898;2.308;2024-01-27T14:31:42;9.75;53.75
66582;SHT31;53438;48.898;2.308;2024-01-27T14:34:07;9.76;53.09
66582;SHT31;53438;48.898;2.308;2024-01-27T14:36:34;9.75;53.35
66582;SHT31;53438;48.898;2.308;2024-01-27T14:39:00;9.76;53.42
66582;SHT31;53438;48.898;2.308;2024-01-27T14:41:26;9.85;53.35
66582;SHT31;53438;48.898;2.308;2024-01-27T14:43:52;9.83;52.28
66582;SHT31;53438;48.898;2.308;2024-01-27T14:46:18;9.83;52.35
66582;SHT31;53438;48.898;2.308;2024-01-27T14:48:43;9.77;52.44
66582;SHT31;53438;48.898;2.308;2024-01-27T14:51:10;9.82;52.20
66582;SHT31;53438;48.898;2.308;2024-01-27T14:53:35;9.83;51.68
66582;SHT31;53438;48.898;2.308;2024-01-27T14:56:01;9.82;51.49
66582;SHT31;53438;48.898;2.308;2024-01-27T14:58:27;9.82;51.46
66582;SHT31;53438;48.898;2.308;2024-01-27T15:00:52;9.80;50.74
66582;SHT31;53438;48.898;2.308;2024-01-27T15:03:22;9.90;50.46
66582;SHT31;53438;48.898;2.308;2024-01-27T15:05:58;9.76;50.67
66582;SHT31;53438;48.898;2.308;2024-01-27T15:08:24;9.75;50.94
66582;SHT31;53438;48.898;2.308;2024-01-27T15:10:49;9.72;51.03
66582;SHT31;53438;48.898;2.308;2024-01-27T15:13:14;9.66;50.88
66582;SHT31;53438;48.898;2.308;2024-01-27T15:15:42;9.69;50.69
66582;SHT31;53438;48.898;2.308;2024-01-27T15:18:07;9.77;50.79
66582;SHT31;53438;48.898;2.308;2024-01-27T15:20:34;9.80;50.72
66582;SHT31;53438;48.898;2.308;2024-01-27T15:22:59;9.79;50.30
66582;SHT31;53438;48.898;2.308;2024-01-27T15:25:25;9.70;49.34
66582;SHT31;53438;48.898;2.308;2024-01-27T15:27:50;9.63;48.76
66582;SHT31;53438;48.898;2.308;2024-01-27T15:30:16;9.69;48.15
66582;SHT31;53438;48.898;2.308;2024-01-27T15:32:44;9.50;48.32
66582;SHT31;53438;48.898;2.308;2024-01-27T15:35:10;9.52;48.82
66582;SHT31;53438;48.898;2.308;2024-01-27T15:37:35;9.59;49.02
66582;SHT31;53438;48.898;2.308;2024-01-27T15:40:04;9.43;48.91
66582;SHT31;53438;48.898;2.308;2024-01-27T15:42:29;9.40;49.56
66582;SHT31;53438;48.898;2.308;2024-01-27T15:44:54;9.40;49.27
66582;SHT31;53438;48.898;2.308;2024-01-27T15:47:20;9.43;49.88
66582;SHT31;53438;48.898;2.308;2024-01-27T15:49:45;9.45;49.99
66582;SHT31;53438;48.898;2.308;2024-01-27T15:52:10;9.45;50.01
66582;SHT31;53438;48.898;2.308;2024-01-27T15:54:37;9.38;50.70
66582;SHT31;53438;48.898;2.308;2024-01-27T15:57:04;9.40;50.89
66582;SHT31;53438;48.898;2.308;2024-01-27T15:59:29;9.35;50.46
66582;SHT31;53438;48.898;2.308;2024-01-27T16:01:54;9.38;49.95
66582;SHT31;53438;48.898;2.308;2024-01-27T16:04:20;9.38;50.39
66582;SHT31;53438;48.898;2.308;2024-01-27T16:06:45;9.35;51.01
66582;SHT31;53438;48.898;2.308;2024-01-27T16:09:11;9.35;51.00
66582;SHT31;53438;48.898;2.308;2024-01-27T16:11:36;9.46;50.84
66582;SHT31;53438;48.898;2.308;2024-01-27T16:14:01;9.45;50.91
66582;SHT31;53438;48.898;2.308;2024-01-27T16:16:29;9.43;51.51
66582;SHT31;53438;48.898;2.308;2024-01-27T16:18:54;9.40;52.06
66582;SHT31;53438;48.898;2.308;2024-01-27T16:21:20;9.32;52.67
66582;SHT31;53438;48.898;2.308;2024-01-27T16:23:45;9.31;53.06
66582;SHT31;53438;48.898;2.308;2024-01-27T16:26:11;9.42;53.15
66582;SHT31;53438;48.898;2.308;2024-01-27T16:28:36;9.43;53.39
66582;SHT31;53438;48.898;2.308;2024-01-27T16:31:06;9.31;54.00
66582;SHT31;53438;48.898;2.308;2024-01-27T16:33:32;9.21;54.35
66582;SHT31;53438;48.898;2.308;2024-01-27T16:35:57;9.15;54.65
66582;SHT31;53438;48.898;2.308;2024-01-27T16:38:23;9.21;54.69
66582;SHT31;53438;48.898;2.308;2024-01-27T16:40:48;9.22;54.66
66582;SHT31;53438;48.898;2.308;2024-01-27T16:43:13;9.17;55.13
66582;SHT31;53438;48.898;2.308;2024-01-27T16:45:39;9.11;55.61
66582;SHT31;53438;48.898;2.308;2024-01-27T16:48:04;9.14;55.37
66582;SHT31;53438;48.898;2.308;2024-01-27T16:50:30;9.05;55.65
66582;SHT31;53438;48.898;2.308;2024-01-27T16:52:56;9.11;54.90
66582;SHT31;53438;48.898;2.308;2024-01-27T16:55:21;9.04;55.31
66582;SHT31;53438;48.898;2.308;2024-01-27T16:57:46;8.97;55.58
66582;SHT31;53438;48.898;2.308;2024-01-27T17:00:12;8.98;55.20
66582;SHT31;53438;48.898;2.308;2024-01-27T17:02:38;9.01;55.40
66582;SHT31;53438;48.898;2.308;2024-01-27T17:05:04;8.87;56.14
66582;SHT31;53438;48.898;2.308;2024-01-27T17:07:30;8.91;56.37
66582;SHT31;53438;48.898;2.308;2024-01-27T17:10:01;8.88;56.94
66582;SHT31;53438;48.898;2.308;2024-01-27T17:12:28;8.91;57.45
66582;SHT31;53438;48.898;2.308;2024-01-27T17:14:53;8.84;57.91
66582;SHT31;53438;48.898;2.308;2024-01-27T17:17:19;8.92;58.19
66582;SHT31;53438;48.898;2.308;2024-01-27T17:19:44;8.85;58.61
66582;SHT31;53438;48.898;2.308;2024-01-27T17:22:10;8.80;59.21
66582;SHT31;53438;48.898;2.308;2024-01-27T17:24:35;8.73;59.67
66582;SHT31;53438;48.898;2.308;2024-01-27T17:27:01;8.80;59.81
66582;SHT31;53438;48.898;2.308;2024-01-27T17:29:26;8.83;60.16
66582;SHT31;53438;48.898;2.308;2024-01-27T17:31:51;8.80;60.63
66582;SHT31;53438;48.898;2.308;2024-01-27T17:34:17;8.64;61.43
66582;SHT31;53438;48.898;2.308;2024-01-27T17:36:45;8.70;61.68
66582;SHT31;53438;48.898;2.308;2024-01-27T17:39:10;8.68;61.95
66582;SHT31;53438;48.898;2.308;2024-01-27T17:41:36;8.61;62.29
66582;SHT31;53438;48.898;2.308;2024-01-27T17:44:02;8.67;62.49
66582;SHT31;53438;48.898;2.308;2024-01-27T17:46:28;8.54;63.10
66582;SHT31;53438;48.898;2.308;2024-01-27T17:48:55;8.50;63.20
66582;SHT31;53438;48.898;2.308;2024-01-27T17:51:20;8.52;63.18
66582;SHT31;53438;48.898;2.308;2024-01-27T17:53:46;8.52;63.44
66582;SHT31;53438;48.898;2.308;2024-01-27T17:56:25;8.36;64.03
66582;SHT31;53438;48.898;2.308;2024-01-27T17:58:50;8.40;64.02
66582;SHT31;53438;48.898;2.308;2024-01-27T18:01:16;8.36;64.32
66582;SHT31;53438;48.898;2.308;2024-01-27T18:03:41;8.33;64.39
66582;SHT31;53438;48.898;2.308;2024-01-27T18:06:06;8.32;64.50
66582;SHT31;53438;48.898;2.308;2024-01-27T18:08:33;8.37;64.11
66582;SHT31;53438;48.898;2.308;2024-01-27T18:10:59;8.49;63.73
66582;SHT31;53438;48.898;2.308;2024-01-27T18:13:24;8.45;63.85
66582;SHT31;53438;48.898;2.308;2024-01-27T18:15:50;8.28;64.31
66582;SHT31;53438;48.898;2.308;2024-01-27T18:18:16;8.29;64.06
66582;SHT31;53438;48.898;2.308;2024-01-27T18:20:41;8.21;64.60
66582;SHT31;53438;48.898;2.308;2024-01-27T18:23:07;8.21;64.29
66582;SHT31;53438;48.898;2.308;2024-01-27T18:25:32;8.24;64.07
66582;SHT31;53438;48.898;2.308;2024-01-27T18:27:58;8.28;63.93
66582;SHT31;53438;48.898;2.308;2024-01-27T18:30:24;8.28;63.74
66582;SHT31;53438;48.898;2.308;2024-01-27T18:32:50;8.26;63.77
66582;SHT31;53438;48.898;2.308;2024-01-27T18:35:15;8.18;64.07
66582;SHT31;53438;48.898;2.308;2024-01-27T18:37:42;8.09;64.30
66582;SHT31;53438;48.898;2.308;2024-01-27T18:40:08;8.06;64.47